createdAt,value
2023-10-09T00:00:41.689Z,33.65
2023-10-09T00:03:10.202Z,33.59
2023-10-09T00:05:47.351Z,33.28
2023-10-09T00:08:23.424Z,33.42
2023-10-09T00:10:55.643Z,33.53
2023-10-09T00:13:31.787Z,33.01
2023-10-09T00:16:15.653Z,33.42
2023-10-09T00:18:47.573Z,33.07
2023-10-09T00:21:17.238Z,32.66
2023-10-09T00:23:45.859Z,33.28
2023-10-09T00:26:17.462Z,32.97
2023-10-09T00:28:48.353Z,32.61
2023-10-09T00:31:17.397Z,32.61
2023-10-09T00:33:46.354Z,33.44
2023-10-09T00:36:17.708Z,33.54
2023-10-09T00:38:50.501Z,33.03
2023-10-09T00:41:23.511Z,33.28
2023-10-09T00:43:54.001Z,33.24
2023-10-09T00:46:23.065Z,33.43
2023-10-09T00:48:57.130Z,33.57
2023-10-09T00:51:27.071Z,33.39
2023-10-09T00:54:07.525Z,33.85
2023-10-09T00:56:40.404Z,33.78
2023-10-09T00:59:15.609Z,33.60
2023-10-09T01:02:05.409Z,33.56
2023-10-09T01:04:42.021Z,33.53
2023-10-09T01:07:17.359Z,34.21
2023-10-09T01:09:46.088Z,33.47
2023-10-09T01:12:21.571Z,33.64
2023-10-09T01:14:56.629Z,33.92
2023-10-09T01:17:36.566Z,33.35
2023-10-09T01:20:06.761Z,33.16
2023-10-09T01:22:35.290Z,33.33
2023-10-09T01:25:07.204Z,33.23
2023-10-09T01:27:36.270Z,32.79
2023-10-09T01:30:06.321Z,33.11
2023-10-09T01:32:35.956Z,32.86
2023-10-09T01:35:10.048Z,33.64
2023-10-09T01:37:38.486Z,33.68
2023-10-09T01:40:26.417Z,33.72
2023-10-09T01:42:55.313Z,33.21
2023-10-09T01:45:23.850Z,33.48
2023-10-09T01:47:58.468Z,33.25
2023-10-09T01:50:28.301Z,33.23
2023-10-09T01:52:56.757Z,33.29
2023-10-09T01:55:30.050Z,33.70
2023-10-09T01:57:59.811Z,33.33
2023-10-09T02:00:30.513Z,33.51
2023-10-09T02:03:04.464Z,33.27
2023-10-09T02:05:37.043Z,33.36
2023-10-09T02:08:07.093Z,32.97
2023-10-09T02:10:38.627Z,33.26
2023-10-09T02:13:08.438Z,33.48
2023-10-09T02:15:45.018Z,33.32
2023-10-09T02:18:24.750Z,33.38
2023-10-09T02:21:06.180Z,33.25
2023-10-09T02:23:50.851Z,33.23
2023-10-09T02:26:27.634Z,32.87
2023-10-09T02:29:00.525Z,33.24
2023-10-09T02:31:37.404Z,33.01
2023-10-09T02:34:06.651Z,33.11
2023-10-09T02:37:04.490Z,33.47
2023-10-09T02:39:48.306Z,33.06
2023-10-09T02:42:16.798Z,33.06
2023-10-09T02:44:50.845Z,32.92
2023-10-09T02:47:30.873Z,32.60
2023-10-09T02:50:07.869Z,33.02
2023-10-09T02:52:42.016Z,32.36
2023-10-09T02:55:23.936Z,32.64
2023-10-09T02:58:07.606Z,32.46
2023-10-09T03:00:37.521Z,33.29
2023-10-09T03:03:08.313Z,32.80
2023-10-09T03:05:43.449Z,32.96
2023-10-09T03:08:13.426Z,33.53
2023-10-09T03:10:41.914Z,33.59
2023-10-09T03:13:10.278Z,33.48
2023-10-09T03:15:40.034Z,33.58
2023-10-09T03:18:08.951Z,33.26
2023-10-09T03:20:38.451Z,33.40
2023-10-09T03:23:08.951Z,33.29
2023-10-09T03:25:38.912Z,32.93
2023-10-09T03:28:07.950Z,32.85
2023-10-09T03:30:38.540Z,32.95
2023-10-09T03:33:08.153Z,33.55
2023-10-09T03:35:37.445Z,33.30
2023-10-09T03:38:17.836Z,33.00
2023-10-09T03:40:49.505Z,33.87
2023-10-09T03:43:18.134Z,33.34
2023-10-09T03:45:53.385Z,32.94
2023-10-09T03:48:23.895Z,33.43
2023-10-09T03:51:09.569Z,33.23
2023-10-09T03:53:40.450Z,33.40
2023-10-09T03:56:13.171Z,33.51
2023-10-09T03:58:46.292Z,33.29
2023-10-09T04:01:29.773Z,33.32
2023-10-09T04:04:00.964Z,33.31
2023-10-09T04:06:34.098Z,33.47
2023-10-09T04:09:20.391Z,33.60
2023-10-09T04:12:12.129Z,33.44
2023-10-09T04:14:59.148Z,33.26
2023-10-09T04:17:30.451Z,33.06
2023-10-09T04:20:37.154Z,33.59
2023-10-09T04:23:08.279Z,33.44
2023-10-09T04:25:42.917Z,33.48
2023-10-09T04:28:21.403Z,33.46
2023-10-09T04:30:56.576Z,33.06
2023-10-09T04:33:34.423Z,33.46
2023-10-09T04:36:23.040Z,33.55
2023-10-09T04:39:04.920Z,33.74
2023-10-09T04:41:52.540Z,33.76
2023-10-09T04:44:23.995Z,34.20
2023-10-09T04:47:14.457Z,34.59
2023-10-09T04:49:49.933Z,34.28
2023-10-09T04:52:40.079Z,34.47
2023-10-09T04:55:12.425Z,34.57
2023-10-09T04:57:42.866Z,34.75
2023-10-09T05:00:27.455Z,34.81
2023-10-09T05:03:06.048Z,34.49
2023-10-09T05:05:42.959Z,34.55
2023-10-09T05:08:21.850Z,34.84
2023-10-09T05:11:00.343Z,34.63
2023-10-09T05:13:39.634Z,34.39
2023-10-09T05:16:30.416Z,34.38
2023-10-09T05:19:06.853Z,33.84
2023-10-09T05:21:44.383Z,33.58
2023-10-09T05:24:13.537Z,34.29
2023-10-09T05:26:47.689Z,33.89
2023-10-09T05:29:20.198Z,33.77
2023-10-09T05:32:04.364Z,33.76
2023-10-09T05:34:37.967Z,33.67
2023-10-09T05:37:25.875Z,33.70
2023-10-09T05:40:01.973Z,34.30
2023-10-09T05:42:42.550Z,34.86
2023-10-09T05:45:18.240Z,34.54
2023-10-09T05:48:20.930Z,34.71
2023-10-09T05:51:08.213Z,34.39
2023-10-09T05:53:45.405Z,34.53
2023-10-09T05:56:32.535Z,33.86
2023-10-09T05:59:12.926Z,34.13
2023-10-09T06:02:00.029Z,33.84
2023-10-09T06:04:47.433Z,34.55
2023-10-09T06:07:23.706Z,34.03
2023-10-09T06:09:56.657Z,33.67
2023-10-09T06:12:53.865Z,34.80
2023-10-09T06:15:51.739Z,34.37
2023-10-09T06:18:35.153Z,34.36
2023-10-09T06:21:09.987Z,34.81
2023-10-09T06:23:57.273Z,34.80
2023-10-09T06:26:26.376Z,34.40
2023-10-09T06:29:27.214Z,34.92
2023-10-09T06:31:59.158Z,34.37
2023-10-09T06:34:33.929Z,33.75
2023-10-09T06:37:19.218Z,34.10
2023-10-09T06:39:56.754Z,34.01
2023-10-09T06:42:32.628Z,34.39
2023-10-09T06:45:15.180Z,34.17
2023-10-09T06:47:57.498Z,34.53
2023-10-09T06:50:26.505Z,34.49
2023-10-09T06:52:58.586Z,34.83
2023-10-09T06:55:38.623Z,33.99
2023-10-09T06:58:16.495Z,34.54
2023-10-09T07:01:04.832Z,34.72
2023-10-09T07:03:36.204Z,34.33
2023-10-09T07:06:27.763Z,34.49
2023-10-09T07:09:06.241Z,34.45
2023-10-09T07:11:41.506Z,34.70
2023-10-09T07:14:31.336Z,34.33
2023-10-09T07:17:05.337Z,34.42
2023-10-09T07:19:56.677Z,34.83
2023-10-09T07:22:30.625Z,34.27
2023-10-09T07:25:15.633Z,33.25
2023-10-09T07:27:45.780Z,33.94
2023-10-09T07:30:31.301Z,34.01
2023-10-09T07:33:09.503Z,33.65
2023-10-09T07:35:46.471Z,34.27
2023-10-09T07:38:21.814Z,34.40
2023-10-09T07:41:21.273Z,34.12
2023-10-09T07:43:52.022Z,34.95
2023-10-09T07:46:53.247Z,34.27
2023-10-09T07:49:27.926Z,34.70
2023-10-09T07:51:59.840Z,34.51
2023-10-09T07:54:37.219Z,34.42
2023-10-09T07:57:17.060Z,34.72
2023-10-09T08:00:02.339Z,35.08
2023-10-09T08:02:33.884Z,34.48
2023-10-09T08:05:07.939Z,34.16
2023-10-09T08:08:06.683Z,34.37
2023-10-09T08:10:24.990Z,33.90
2023-10-09T08:12:53.491Z,33.90
2023-10-09T08:15:22.839Z,34.04
2023-10-09T08:18:00.600Z,34.17
2023-10-09T08:20:37.399Z,34.71
2023-10-09T08:23:23.235Z,34.60
2023-10-09T08:26:13.708Z,35.20
2023-10-09T08:28:46.272Z,34.18
2023-10-09T08:31:35.955Z,33.72
2023-10-09T08:36:51.007Z,33.33
2023-10-09T08:39:30.922Z,33.63
2023-10-09T08:41:59.502Z,33.85
2023-10-09T08:44:30.885Z,34.32
2023-10-09T08:47:00.459Z,33.67
2023-10-09T08:49:29.764Z,33.60
2023-10-09T08:52:04.343Z,33.65
2023-10-09T08:54:36.253Z,33.69
2023-10-09T08:57:05.696Z,33.59
2023-10-09T08:59:35.477Z,32.99
2023-10-09T09:02:04.660Z,33.29
2023-10-09T09:04:41.172Z,33.07
2023-10-09T09:07:40.379Z,33.53
2023-10-09T09:10:18.977Z,34.78
2023-10-09T09:12:54.633Z,34.27
2023-10-09T09:15:27.983Z,34.89
2023-10-09T09:18:18.677Z,34.67
2023-10-09T09:20:47.621Z,34.03
2023-10-09T09:23:16.356Z,34.20
2023-10-09T09:25:59.062Z,33.97
2023-10-09T09:28:34.144Z,33.56
2023-10-09T09:31:15.299Z,34.13
2023-10-09T09:33:44.786Z,33.13
2023-10-09T09:36:13.531Z,33.94
2023-10-09T09:38:43.221Z,33.31
2023-10-09T09:41:12.227Z,34.90
2023-10-09T09:43:41.902Z,34.74
2023-10-09T09:46:13.007Z,34.41
2023-10-09T09:48:46.293Z,34.88
2023-10-09T09:51:15.872Z,33.87
2023-10-09T09:53:49.566Z,34.02
2023-10-09T09:56:22.684Z,33.98
2023-10-09T09:58:55.272Z,33.78
2023-10-09T10:01:33.353Z,34.26
2023-10-09T10:04:12.940Z,34.59
2023-10-09T10:06:45.720Z,33.37
2023-10-09T10:09:42.579Z,33.32
2023-10-09T10:12:12.316Z,33.23
2023-10-09T10:15:00.666Z,33.11
2023-10-09T10:17:30.569Z,32.98
2023-10-09T10:20:26.525Z,33.53
2023-10-09T10:23:26.725Z,33.10
2023-10-09T10:26:01.541Z,33.17
2023-10-09T10:28:39.987Z,32.82
2023-10-09T10:31:10.212Z,33.01
2023-10-09T10:33:57.064Z,32.45
2023-10-09T10:36:30.503Z,32.98
2023-10-09T10:39:30.959Z,32.95
2023-10-09T10:42:05.991Z,33.29
2023-10-09T10:44:35.492Z,32.61
2023-10-09T10:47:37.894Z,33.81
2023-10-09T10:50:34.847Z,34.37
2023-10-09T10:53:16.941Z,33.42
2023-10-09T10:56:15.157Z,33.29
2023-10-09T10:59:06.045Z,32.92
2023-10-09T11:01:54.401Z,32.46
2023-10-09T11:04:34.025Z,33.44
2023-10-09T11:07:22.915Z,33.09
2023-10-09T11:10:08.084Z,32.96
2023-10-09T11:12:40.850Z,33.84
2023-10-09T11:15:22.946Z,33.29
2023-10-09T11:18:06.299Z,32.84
2023-10-09T11:20:36.812Z,32.31
2023-10-09T11:23:12.446Z,31.99
2023-10-09T11:25:53.600Z,33.10
2023-10-09T11:28:43.067Z,32.48
2023-10-09T11:31:12.750Z,32.55
2023-10-09T11:33:53.246Z,32.66
2023-10-09T11:36:33.573Z,33.01
2023-10-09T11:39:21.913Z,32.60
2023-10-09T11:41:56.319Z,33.44
2023-10-09T11:44:36.352Z,34.27
2023-10-09T11:47:20.420Z,33.80
2023-10-09T11:50:02.702Z,34.34
2023-10-09T11:52:57.402Z,34.44
2023-10-09T11:55:26.497Z,34.72
2023-10-09T11:57:56.428Z,34.05
2023-10-09T12:00:31.280Z,33.17
2023-10-09T12:03:06.580Z,33.08
2023-10-09T12:05:35.092Z,32.90
2023-10-09T12:08:09.489Z,32.28
2023-10-09T12:10:41.558Z,32.28
2023-10-09T12:13:10.128Z,32.14
2023-10-09T12:15:41.059Z,33.38
2023-10-09T12:18:29.641Z,32.59
2023-10-09T12:21:04.995Z,32.28
2023-10-09T12:23:36.708Z,31.39
2023-10-09T12:26:05.993Z,33.60
2023-10-09T12:28:34.613Z,33.25
2023-10-09T12:31:03.155Z,34.18
2023-10-09T12:33:32.017Z,32.98
2023-10-09T12:36:01.646Z,32.76
2023-10-09T12:38:34.157Z,32.65
2023-10-09T12:41:20.722Z,32.47
2023-10-09T12:43:49.395Z,32.73
2023-10-09T12:46:18.251Z,32.74
2023-10-09T12:48:49.936Z,32.65
2023-10-09T12:51:18.733Z,32.45
2023-10-09T12:53:49.993Z,32.75
2023-10-09T12:56:19.608Z,33.11
2023-10-09T12:58:54.709Z,31.97
2023-10-09T13:01:23.563Z,31.44
2023-10-09T13:03:53.268Z,31.76
2023-10-09T13:06:25.506Z,31.37
2023-10-09T13:08:57.143Z,31.69
2023-10-09T13:11:26.846Z,31.54
2023-10-09T13:13:56.303Z,31.90
2023-10-09T13:16:25.141Z,32.44
2023-10-09T13:18:55.710Z,32.52
2023-10-09T13:21:35.331Z,32.24
2023-10-09T13:24:04.260Z,31.98
2023-10-09T13:26:34.972Z,31.07
2023-10-09T13:29:05.322Z,31.16
2023-10-09T13:31:35.235Z,31.62
2023-10-09T13:34:10.936Z,33.66
2023-10-09T13:36:39.556Z,33.02
2023-10-09T13:39:25.662Z,31.83
2023-10-09T13:41:59.660Z,32.01
2023-10-09T13:44:29.668Z,32.88
2023-10-09T13:46:59.985Z,32.46
2023-10-09T13:49:31.892Z,32.43
2023-10-09T13:52:02.657Z,32.20
2023-10-09T13:54:35.152Z,31.76
2023-10-09T13:57:05.818Z,31.81
2023-10-09T13:59:43.732Z,31.12
2023-10-09T14:02:18.486Z,31.26
2023-10-09T14:04:51.835Z,31.46
2023-10-09T14:07:21.827Z,31.42
2023-10-09T14:09:56.885Z,31.07
2023-10-09T14:12:30.655Z,30.86
2023-10-09T14:15:02.461Z,31.77
2023-10-09T14:17:31.026Z,31.14
2023-10-09T14:20:22.493Z,30.56
2023-10-09T14:22:54.002Z,30.78
2023-10-09T14:25:23.067Z,30.59
2023-10-09T14:27:54.251Z,31.09
2023-10-09T14:30:32.115Z,31.33
2023-10-09T14:33:03.250Z,31.09
2023-10-09T14:35:34.134Z,30.70
2023-10-09T14:38:05.944Z,31.27
2023-10-09T14:40:34.826Z,30.62
2023-10-09T14:43:04.588Z,30.99
2023-10-09T14:45:37.962Z,30.91
2023-10-09T14:48:06.776Z,30.74
2023-10-09T14:50:39.743Z,30.24
2023-10-09T14:53:09.219Z,30.43
2023-10-09T14:55:39.532Z,30.44
2023-10-09T14:58:08.551Z,30.35
2023-10-09T15:00:37.089Z,30.59
2023-10-09T15:03:05.683Z,30.92
2023-10-09T15:05:35.463Z,30.28
2023-10-09T15:08:05.305Z,30.90
2023-10-09T15:10:33.850Z,31.11
2023-10-09T15:13:02.364Z,31.04
2023-10-09T15:15:32.149Z,30.71
2023-10-09T15:18:00.588Z,31.01
2023-10-09T15:20:29.128Z,31.31
2023-10-09T15:22:57.732Z,31.13
2023-10-09T15:25:26.213Z,31.40
2023-10-09T15:27:54.696Z,31.13
2023-10-09T15:30:23.136Z,31.03
2023-10-09T15:32:51.603Z,31.30
2023-10-09T15:35:20.257Z,30.90
2023-10-09T15:37:48.891Z,31.04
2023-10-09T15:40:19.171Z,31.01
2023-10-09T15:42:51.127Z,30.99
2023-10-09T15:45:22.603Z,31.83
2023-10-09T15:47:52.881Z,31.08
2023-10-09T15:50:25.624Z,31.04
2023-10-09T15:52:55.475Z,31.19
2023-10-09T15:55:27.368Z,32.07
2023-10-09T15:57:56.046Z,31.55
2023-10-09T16:00:29.913Z,30.69
2023-10-09T16:03:01.848Z,30.81
2023-10-09T16:05:31.744Z,29.92
2023-10-09T16:08:01.425Z,29.94
2023-10-09T16:10:32.300Z,30.50
2023-10-09T16:13:01.261Z,30.68
2023-10-09T16:15:29.911Z,30.97
2023-10-09T16:18:04.362Z,30.48
2023-10-09T16:20:33.422Z,30.94
2023-10-09T16:23:05.510Z,30.67
2023-10-09T16:25:37.394Z,30.99
2023-10-09T16:28:06.037Z,30.58
2023-10-09T16:30:34.532Z,30.18
2023-10-09T16:33:06.178Z,30.09
2023-10-09T16:35:38.446Z,30.71
2023-10-09T16:38:12.974Z,30.69
2023-10-09T16:40:48.007Z,30.50
2023-10-09T16:43:18.560Z,30.42
2023-10-09T16:45:47.356Z,30.49
2023-10-09T16:48:16.637Z,30.74
2023-10-09T16:50:48.007Z,30.81
2023-10-09T16:53:18.234Z,32.32
2023-10-09T16:55:46.999Z,32.30
2023-10-09T16:58:16.610Z,32.87
2023-10-09T17:00:47.489Z,32.48
2023-10-09T17:03:18.726Z,33.30
2023-10-09T17:05:59.573Z,32.83
2023-10-09T17:08:31.128Z,33.19
2023-10-09T17:10:59.908Z,32.63
2023-10-09T17:13:29.385Z,32.68
2023-10-09T17:15:57.973Z,32.58
2023-10-09T17:18:28.071Z,32.96
2023-10-09T17:20:56.666Z,32.80
2023-10-09T17:23:25.244Z,32.63
2023-10-09T17:25:59.005Z,32.38
2023-10-09T17:28:28.250Z,32.77
2023-10-09T17:31:04.488Z,32.82
2023-10-09T17:33:34.671Z,32.83
2023-10-09T17:36:06.902Z,33.16
2023-10-09T17:38:35.422Z,33.07
2023-10-09T17:41:06.996Z,32.92
2023-10-09T17:43:36.607Z,32.63
2023-10-09T17:46:05.477Z,32.46
2023-10-09T17:48:34.854Z,32.66
2023-10-09T17:51:09.888Z,32.73
2023-10-09T17:53:39.783Z,32.52
2023-10-09T17:56:11.894Z,32.68
2023-10-09T17:58:45.290Z,32.97
2023-10-09T18:01:13.865Z,33.18
2023-10-09T18:03:42.432Z,33.07
2023-10-09T18:06:13.820Z,33.12
2023-10-09T18:08:42.476Z,33.30
2023-10-09T18:11:15.297Z,33.35
2023-10-09T18:13:44.086Z,33.47
2023-10-09T18:16:18.986Z,33.18
2023-10-09T18:18:48.226Z,32.88
2023-10-09T18:21:23.253Z,33.16
2023-10-09T18:23:51.771Z,32.91
2023-10-09T18:26:20.864Z,32.43
2023-10-09T18:28:51.798Z,32.57
2023-10-09T18:31:21.773Z,32.30
2023-10-09T18:33:59.288Z,32.38
2023-10-09T18:36:31.148Z,31.76
2023-10-09T18:38:59.641Z,32.00
2023-10-09T18:41:28.104Z,32.19
2023-10-09T18:43:58.662Z,32.17
2023-10-09T18:46:27.673Z,31.89
2023-10-09T18:49:01.804Z,31.62
2023-10-09T18:51:31.628Z,31.72
2023-10-09T18:54:05.364Z,31.87
2023-10-09T18:56:35.719Z,31.78
2023-10-09T18:59:12.608Z,32.11
2023-10-09T19:01:41.181Z,31.96
2023-10-09T19:04:09.795Z,31.95
2023-10-09T19:06:38.805Z,31.63
2023-10-09T19:09:08.138Z,31.74
2023-10-09T19:11:40.227Z,31.88
2023-10-09T19:14:09.874Z,31.65
2023-10-09T19:16:38.670Z,31.51
2023-10-09T19:19:09.380Z,31.60
2023-10-09T19:21:38.943Z,31.74
2023-10-09T19:24:12.949Z,30.73
2023-10-09T19:26:43.498Z,30.54
2023-10-09T19:29:12.468Z,30.65
2023-10-09T19:31:43.712Z,31.15
2023-10-09T19:34:14.733Z,31.24
2023-10-09T19:36:48.027Z,31.21
2023-10-09T19:39:18.150Z,31.19
2023-10-09T19:41:46.831Z,31.22
2023-10-09T19:44:15.508Z,31.42
2023-10-09T19:46:45.533Z,31.02
2023-10-09T19:49:14.513Z,31.62
2023-10-09T19:51:43.954Z,31.87
2023-10-09T19:54:12.541Z,31.81
2023-10-09T19:56:43.654Z,31.46
2023-10-09T19:59:13.167Z,31.66
2023-10-09T20:01:42.019Z,31.65
2023-10-09T20:04:10.583Z,31.51
2023-10-09T20:06:40.711Z,31.45
2023-10-09T20:09:13.471Z,31.85
2023-10-09T20:11:42.504Z,31.52
2023-10-09T20:14:11.004Z,32.02
2023-10-09T20:16:39.530Z,32.19
2023-10-09T20:19:09.534Z,32.61
2023-10-09T20:21:39.070Z,32.66
2023-10-09T20:24:07.804Z,32.72
2023-10-09T20:26:37.280Z,32.60
2023-10-09T20:29:05.714Z,32.50
2023-10-09T20:31:34.290Z,32.46
2023-10-09T20:34:02.836Z,32.68
2023-10-09T20:36:32.003Z,32.79
2023-10-09T20:39:00.697Z,32.73
2023-10-09T20:41:29.540Z,32.52
2023-10-09T20:43:58.217Z,32.46
2023-10-09T20:46:30.503Z,32.67
2023-10-09T20:49:00.576Z,32.41
2023-10-09T20:51:32.488Z,32.61
2023-10-09T20:54:03.088Z,32.06
2023-10-09T20:56:32.641Z,32.50
2023-10-09T20:59:02.002Z,32.50
2023-10-09T21:01:31.029Z,32.30
2023-10-09T21:03:59.682Z,31.88
2023-10-09T21:06:28.146Z,31.92
2023-10-09T21:08:56.580Z,31.68
2023-10-09T21:11:25.181Z,31.82
2023-10-09T21:13:54.504Z,31.82
2023-10-09T21:16:23.142Z,31.70
2023-10-09T21:18:55.928Z,31.90
2023-10-09T21:21:24.885Z,31.11
2023-10-09T21:23:56.992Z,30.91
2023-10-09T21:26:27.406Z,30.03
2023-10-09T21:28:56.058Z,30.84
2023-10-09T21:31:26.194Z,30.76
2023-10-09T21:33:57.855Z,30.74
2023-10-09T21:36:26.468Z,30.95
2023-10-09T21:38:55.330Z,30.52
2023-10-09T21:41:23.944Z,30.87
2023-10-09T21:43:54.648Z,30.88
2023-10-09T21:46:26.607Z,30.92
2023-10-09T21:48:55.721Z,30.99
2023-10-09T21:51:24.218Z,30.97
2023-10-09T21:53:52.807Z,31.08
2023-10-09T21:56:21.536Z,31.20
2023-10-09T21:58:50.450Z,31.00
2023-10-09T22:01:20.338Z,31.38
2023-10-09T22:03:49.751Z,31.25
2023-10-09T22:06:18.627Z,31.29
2023-10-09T22:08:47.102Z,31.30
2023-10-09T22:11:17.253Z,31.19
2023-10-09T22:13:46.850Z,31.14
2023-10-09T22:16:15.628Z,30.97
2023-10-09T22:21:18.175Z,31.26
2023-10-09T22:23:47.225Z,31.25
2023-10-09T22:26:16.468Z,30.96
2023-10-09T22:28:48.088Z,31.20
2023-10-09T22:31:17.334Z,30.88
2023-10-09T22:33:54.401Z,31.24
2023-10-09T22:36:46.934Z,31.24
2023-10-09T22:39:33.951Z,31.07
2023-10-09T22:42:04.502Z,31.03
2023-10-09T22:44:33.932Z,31.20
2023-10-09T22:47:09.393Z,31.17
2023-10-09T22:49:42.769Z,31.21
2023-10-09T22:52:35.775Z,31.29
2023-10-09T22:55:12.861Z,31.49
2023-10-09T22:57:44.457Z,31.26
2023-10-09T23:00:34.079Z,31.47
2023-10-09T23:03:10.486Z,31.28
2023-10-09T23:05:45.147Z,31.51
2023-10-09T23:08:19.980Z,31.48
2023-10-09T23:10:54.547Z,31.31
2023-10-09T23:13:34.604Z,31.42
2023-10-09T23:16:15.353Z,31.42
2023-10-09T23:19:02.857Z,31.58
2023-10-09T23:21:51.595Z,31.37
2023-10-09T23:24:29.384Z,31.19
2023-10-09T23:26:57.995Z,31.31
2023-10-09T23:29:34.045Z,31.46
2023-10-09T23:32:23.377Z,32.04
2023-10-09T23:34:58.001Z,31.76
2023-10-09T23:37:39.970Z,31.86
2023-10-09T23:40:17.656Z,31.71
2023-10-09T23:43:06.434Z,31.71
2023-10-09T23:45:34.934Z,31.66
2023-10-09T23:48:12.803Z,31.60
2023-10-09T23:50:45.523Z,31.58
2023-10-09T23:53:16.590Z,31.66
2023-10-09T23:55:45.390Z,31.50
2023-10-09T23:58:34.876Z,31.52
